sensor_id;sensor_type;location;lat;lon;timestamp;temperature;humidity
31575;DHT22;18182;1.328;103.810;2023-06-04T00:01:00;29.90;99.90
31575;DHT22;18182;1.328;103.810;2023-06-04T00:03:26;29.90;99.90
31575;DHT22;18182;1.328;103.810;2023-06-04T00:05:52;30.00;99.90
31575;DHT22;18182;1.328;103.810;2023-06-04T00:08:18;30.00;99.90
31575;DHT22;18182;1.328;103.810;2023-06-04T00:10:44;30.00;99.90
31575;DHT22;18182;1.328;103.810;2023-06-04T00:13:10;30.10;99.90
31575;DHT22;18182;1.328;103.810;2023-06-04T00:15:37;30.20;99.90
31575;DHT22;18182;1.328;103.810;2023-06-04T00:18:03;30.20;99.90
31575;DHT22;18182;1.328;103.810;2023-06-04T00:20:29;30.20;99.90
31575;DHT22;18182;1.328;103.810;2023-06-04T00:22:55;30.30;99.90
31575;DHT22;18182;1.328;103.810;2023-06-04T00:25:21;30.30;99.90
31575;DHT22;18182;1.328;103.810;2023-06-04T00:27:47;30.40;99.90
31575;DHT22;18182;1.328;103.810;2023-06-04T00:30:14;30.40;99.90
31575;DHT22;18182;1.328;103.810;2023-06-04T00:32:40;30.40;99.90
31575;DHT22;18182;1.328;103.810;2023-06-04T00:35:06;30.50;99.90
31575;DHT22;18182;1.328;103.810;2023-06-04T00:37:35;30.40;99.90
31575;DHT22;18182;1.328;103.810;2023-06-04T00:40:01;30.40;99.90
31575;DHT22;18182;1.328;103.810;2023-06-04T00:42:27;30.40;99.90
31575;DHT22;18182;1.328;103.810;2023-06-04T00:44:53;30.40;99.90
31575;DHT22;18182;1.328;103.810;2023-06-04T00:47:23;30.50;99.90
31575;DHT22;18182;1.328;103.810;2023-06-04T00:49:49;30.50;99.90
31575;DHT22;18182;1.328;103.810;2023-06-04T00:52:15;30.50;99.90
31575;DHT22;18182;1.328;103.810;2023-06-04T00:54:42;30.60;99.90
31575;DHT22;18182;1.328;103.810;2023-06-04T00:57:08;30.50;99.90
31575;DHT22;18182;1.328;103.810;2023-06-04T00:59:35;30.50;99.90
31575;DHT22;18182;1.328;103.810;2023-06-04T01:02:06;30.50;99.90
31575;DHT22;18182;1.328;103.810;2023-06-04T01:07:19;30.50;99.90
31575;DHT22;18182;1.328;103.810;2023-06-04T01:09:45;30.50;99.90
31575;DHT22;18182;1.328;103.810;2023-06-04T01:12:11;30.40;99.90
31575;DHT22;18182;1.328;103.810;2023-06-04T01:14:37;30.40;99.90
31575;DHT22;18182;1.328;103.810;2023-06-04T01:17:07;30.40;99.90
31575;DHT22;18182;1.328;103.810;2023-06-04T01:19:45;30.40;99.90
31575;DHT22;18182;1.328;103.810;2023-06-04T01:25:12;30.30;99.90
31575;DHT22;18182;1.328;103.810;2023-06-04T01:27:48;30.40;99.90
31575;DHT22;18182;1.328;103.810;2023-06-04T01:30:16;30.30;99.90
31575;DHT22;18182;1.328;103.810;2023-06-04T01:32:43;30.30;99.90
31575;DHT22;18182;1.328;103.810;2023-06-04T01:35:10;30.40;99.90
31575;DHT22;18182;1.328;103.810;2023-06-04T01:37:37;30.40;99.90
31575;DHT22;18182;1.328;103.810;2023-06-04T01:40:03;30.40;99.90
31575;DHT22;18182;1.328;103.810;2023-06-04T01:42:31;30.40;99.90
31575;DHT22;18182;1.328;103.810;2023-06-04T01:44:57;30.40;99.90
31575;DHT22;18182;1.328;103.810;2023-06-04T01:47:23;30.30;99.90
31575;DHT22;18182;1.328;103.810;2023-06-04T01:49:49;30.40;99.90
31575;DHT22;18182;1.328;103.810;2023-06-04T01:52:16;30.40;99.90
31575;DHT22;18182;1.328;103.810;2023-06-04T01:54:46;30.40;99.90
31575;DHT22;18182;1.328;103.810;2023-06-04T01:57:23;30.40;99.90
31575;DHT22;18182;1.328;103.810;2023-06-04T01:59:50;30.50;99.90
31575;DHT22;18182;1.328;103.810;2023-06-04T02:02:16;30.50;99.90
31575;DHT22;18182;1.328;103.810;2023-06-04T02:04:44;30.50;99.90
31575;DHT22;18182;1.328;103.810;2023-06-04T02:07:12;30.50;99.90
31575;DHT22;18182;1.328;103.810;2023-06-04T02:09:43;30.60;99.90
31575;DHT22;18182;1.328;103.810;2023-06-04T02:12:09;30.50;99.90
31575;DHT22;18182;1.328;103.810;2023-06-04T02:14:35;30.50;99.90
31575;DHT22;18182;1.328;103.810;2023-06-04T02:17:02;30.50;99.90
31575;DHT22;18182;1.328;103.810;2023-06-04T02:19:30;30.50;99.90
31575;DHT22;18182;1.328;103.810;2023-06-04T02:21:59;30.50;99.90
31575;DHT22;18182;1.328;103.810;2023-06-04T02:24:25;30.50;99.90
31575;DHT22;18182;1.328;103.810;2023-06-04T02:26:51;30.50;99.90
31575;DHT22;18182;1.328;103.810;2023-06-04T02:29:17;30.40;99.90
31575;DHT22;18182;1.328;103.810;2023-06-04T02:31:43;30.40;99.90
31575;DHT22;18182;1.328;103.810;2023-06-04T02:34:09;30.40;99.90
31575;DHT22;18182;1.328;103.810;2023-06-04T02:36:36;30.30;99.90
31575;DHT22;18182;1.328;103.810;2023-06-04T02:39:02;30.30;99.90
31575;DHT22;18182;1.328;103.810;2023-06-04T02:41:28;30.40;99.90
31575;DHT22;18182;1.328;103.810;2023-06-04T02:43:54;30.40;99.90
31575;DHT22;18182;1.328;103.810;2023-06-04T02:46:20;30.50;99.90
31575;DHT22;18182;1.328;103.810;2023-06-04T02:48:46;30.50;99.90
31575;DHT22;18182;1.328;103.810;2023-06-04T02:51:12;30.60;99.90
31575;DHT22;18182;1.328;103.810;2023-06-04T02:53:39;30.70;99.90
31575;DHT22;18182;1.328;103.810;2023-06-04T02:56:07;30.80;99.90
31575;DHT22;18182;1.328;103.810;2023-06-04T02:58:33;30.90;99.90
31575;DHT22;18182;1.328;103.810;2023-06-04T03:01:04;31.10;99.90
31575;DHT22;18182;1.328;103.810;2023-06-04T03:03:30;31.10;99.90
31575;DHT22;18182;1.328;103.810;2023-06-04T03:05:57;31.10;99.90
31575;DHT22;18182;1.328;103.810;2023-06-04T03:08:25;31.10;99.90
31575;DHT22;18182;1.328;103.810;2023-06-04T03:10:51;31.10;99.90
31575;DHT22;18182;1.328;103.810;2023-06-04T03:13:17;31.10;99.90
31575;DHT22;18182;1.328;103.810;2023-06-04T03:15:43;31.10;99.90
31575;DHT22;18182;1.328;103.810;2023-06-04T03:18:10;31.10;99.90
31575;DHT22;18182;1.328;103.810;2023-06-04T03:20:37;31.10;99.90
31575;DHT22;18182;1.328;103.810;2023-06-04T03:23:03;31.10;99.90
31575;DHT22;18182;1.328;103.810;2023-06-04T03:25:30;31.10;99.90
31575;DHT22;18182;1.328;103.810;2023-06-04T03:27:56;31.10;99.90
31575;DHT22;18182;1.328;103.810;2023-06-04T03:30:22;31.00;99.90
31575;DHT22;18182;1.328;103.810;2023-06-04T03:32:48;30.90;99.90
31575;DHT22;18182;1.328;103.810;2023-06-04T03:35:14;30.80;99.90
31575;DHT22;18182;1.328;103.810;2023-06-04T03:37:40;30.60;99.90
31575;DHT22;18182;1.328;103.810;2023-06-04T03:40:07;30.30;99.90
31575;DHT22;18182;1.328;103.810;2023-06-04T03:42:33;30.20;99.90
31575;DHT22;18182;1.328;103.810;2023-06-04T03:44:59;30.10;99.90
31575;DHT22;18182;1.328;103.810;2023-06-04T03:47:25;30.00;99.90
31575;DHT22;18182;1.328;103.810;2023-06-04T03:49:51;30.00;99.90
31575;DHT22;18182;1.328;103.810;2023-06-04T03:52:17;29.90;99.90
31575;DHT22;18182;1.328;103.810;2023-06-04T03:54:44;29.80;99.90
31575;DHT22;18182;1.328;103.810;2023-06-04T03:57:10;29.70;99.90
31575;DHT22;18182;1.328;103.810;2023-06-04T03:59:36;29.50;99.90
31575;DHT22;18182;1.328;103.810;2023-06-04T04:02:02;29.40;99.90
31575;DHT22;18182;1.328;103.810;2023-06-04T04:04:28;29.30;99.90
31575;DHT22;18182;1.328;103.810;2023-06-04T04:06:54;29.20;99.90
31575;DHT22;18182;1.328;103.810;2023-06-04T04:09:21;29.20;99.90
31575;DHT22;18182;1.328;103.810;2023-06-04T04:11:47;29.10;99.90
31575;DHT22;18182;1.328;103.810;2023-06-04T04:14:13;29.10;99.90
31575;DHT22;18182;1.328;103.810;2023-06-04T04:16:39;29.10;99.90
31575;DHT22;18182;1.328;103.810;2023-06-04T04:19:05;29.10;99.90
31575;DHT22;18182;1.328;103.810;2023-06-04T04:21:36;29.00;99.90
31575;DHT22;18182;1.328;103.810;2023-06-04T04:24:04;28.90;99.90
31575;DHT22;18182;1.328;103.810;2023-06-04T04:26:30;28.70;99.90
31575;DHT22;18182;1.328;103.810;2023-06-04T04:28:57;28.60;99.90
31575;DHT22;18182;1.328;103.810;2023-06-04T04:31:23;28.50;99.90
31575;DHT22;18182;1.328;103.810;2023-06-04T04:33:50;28.30;99.90
31575;DHT22;18182;1.328;103.810;2023-06-04T04:36:17;28.30;99.90
31575;DHT22;18182;1.328;103.810;2023-06-04T04:38:44;28.40;99.90
31575;DHT22;18182;1.328;103.810;2023-06-04T04:41:22;28.50;99.90
31575;DHT22;18182;1.328;103.810;2023-06-04T04:43:48;28.50;99.90
31575;DHT22;18182;1.328;103.810;2023-06-04T04:46:15;28.30;99.90
31575;DHT22;18182;1.328;103.810;2023-06-04T04:48:41;28.00;99.90
31575;DHT22;18182;1.328;103.810;2023-06-04T04:51:07;27.80;99.90
31575;DHT22;18182;1.328;103.810;2023-06-04T04:53:34;27.90;99.90
31575;DHT22;18182;1.328;103.810;2023-06-04T04:56:00;28.10;99.90
31575;DHT22;18182;1.328;103.810;2023-06-04T04:58:26;28.10;99.90
31575;DHT22;18182;1.328;103.810;2023-06-04T05:00:53;27.90;99.90
31575;DHT22;18182;1.328;103.810;2023-06-04T05:03:19;28.10;99.90
31575;DHT22;18182;1.328;103.810;2023-06-04T05:05:45;28.20;99.90
31575;DHT22;18182;1.328;103.810;2023-06-04T05:08:11;28.20;99.90
31575;DHT22;18182;1.328;103.810;2023-06-04T05:10:38;28.30;99.90
31575;DHT22;18182;1.328;103.810;2023-06-04T05:13:04;28.40;99.90
31575;DHT22;18182;1.328;103.810;2023-06-04T05:15:33;28.50;99.90
31575;DHT22;18182;1.328;103.810;2023-06-04T05:17:59;28.50;99.90
31575;DHT22;18182;1.328;103.810;2023-06-04T05:20:26;28.30;99.90
31575;DHT22;18182;1.328;103.810;2023-06-04T05:22:52;28.30;99.90
31575;DHT22;18182;1.328;103.810;2023-06-04T05:25:20;28.30;99.90
31575;DHT22;18182;1.328;103.810;2023-06-04T05:27:47;28.40;99.90
31575;DHT22;18182;1.328;103.810;2023-06-04T05:30:14;28.50;99.90
31575;DHT22;18182;1.328;103.810;2023-06-04T05:32:41;28.40;99.90
31575;DHT22;18182;1.328;103.810;2023-06-04T05:35:08;28.40;99.90
31575;DHT22;18182;1.328;103.810;2023-06-04T05:37:34;28.40;99.90
31575;DHT22;18182;1.328;103.810;2023-06-04T05:40:00;28.40;99.90
31575;DHT22;18182;1.328;103.810;2023-06-04T05:42:31;28.40;99.90
31575;DHT22;18182;1.328;103.810;2023-06-04T05:44:57;28.40;99.90
31575;DHT22;18182;1.328;103.810;2023-06-04T05:47:23;28.50;99.90
31575;DHT22;18182;1.328;103.810;2023-06-04T05:49:49;28.50;99.90
31575;DHT22;18182;1.328;103.810;2023-06-04T05:52:15;28.60;99.90
31575;DHT22;18182;1.328;103.810;2023-06-04T05:54:42;28.60;99.90
31575;DHT22;18182;1.328;103.810;2023-06-04T05:57:08;28.40;99.90
31575;DHT22;18182;1.328;103.810;2023-06-04T05:59:34;28.30;99.90
31575;DHT22;18182;1.328;103.810;2023-06-04T06:02:00;28.10;99.90
31575;DHT22;18182;1.328;103.810;2023-06-04T06:04:26;28.00;99.90
31575;DHT22;18182;1.328;103.810;2023-06-04T06:06:52;27.90;99.90
31575;DHT22;18182;1.328;103.810;2023-06-04T06:09:19;27.90;99.90
31575;DHT22;18182;1.328;103.810;2023-06-04T06:11:45;27.90;99.90
31575;DHT22;18182;1.328;103.810;2023-06-04T06:14:12;27.80;99.90
31575;DHT22;18182;1.328;103.810;2023-06-04T06:16:38;27.80;99.90
31575;DHT22;18182;1.328;103.810;2023-06-04T06:19:04;27.90;99.90
31575;DHT22;18182;1.328;103.810;2023-06-04T06:21:30;28.00;99.90
31575;DHT22;18182;1.328;103.810;2023-06-04T06:23:56;28.00;99.90
31575;DHT22;18182;1.328;103.810;2023-06-04T06:26:22;28.00;99.90
31575;DHT22;18182;1.328;103.810;2023-06-04T06:28:50;28.00;99.90
31575;DHT22;18182;1.328;103.810;2023-06-04T06:31:16;28.00;99.90
31575;DHT22;18182;1.328;103.810;2023-06-04T06:33:42;28.00;99.90
31575;DHT22;18182;1.328;103.810;2023-06-04T06:36:11;28.20;99.90
31575;DHT22;18182;1.328;103.810;2023-06-04T06:38:38;28.20;99.90
31575;DHT22;18182;1.328;103.810;2023-06-04T06:41:04;28.40;99.90
31575;DHT22;18182;1.328;103.810;2023-06-04T06:43:30;28.40;99.90
31575;DHT22;18182;1.328;103.810;2023-06-04T06:45:57;28.40;99.90
31575;DHT22;18182;1.328;103.810;2023-06-04T06:48:23;28.40;99.90
31575;DHT22;18182;1.328;103.810;2023-06-04T06:50:49;28.40;99.90
31575;DHT22;18182;1.328;103.810;2023-06-04T06:53:16;28.40;99.90
31575;DHT22;18182;1.328;103.810;2023-06-04T06:55:42;28.40;99.90
31575;DHT22;18182;1.328;103.810;2023-06-04T06:58:08;28.40;99.90
31575;DHT22;18182;1.328;103.810;2023-06-04T07:00:34;28.30;99.90
31575;DHT22;18182;1.328;103.810;2023-06-04T07:03:00;28.30;99.90
31575;DHT22;18182;1.328;103.810;2023-06-04T07:05:27;28.30;99.90
31575;DHT22;18182;1.328;103.810;2023-06-04T07:07:53;28.40;99.90
31575;DHT22;18182;1.328;103.810;2023-06-04T07:10:19;28.50;99.90
31575;DHT22;18182;1.328;103.810;2023-06-04T07:12:46;28.50;99.90
31575;DHT22;18182;1.328;103.810;2023-06-04T07:15:12;28.60;99.90
31575;DHT22;18182;1.328;103.810;2023-06-04T07:17:39;28.70;99.90
31575;DHT22;18182;1.328;103.810;2023-06-04T07:20:05;28.70;99.90
31575;DHT22;18182;1.328;103.810;2023-06-04T07:22:33;28.80;99.90
31575;DHT22;18182;1.328;103.810;2023-06-04T07:24:59;28.80;99.90
31575;DHT22;18182;1.328;103.810;2023-06-04T07:27:25;28.80;99.90
31575;DHT22;18182;1.328;103.810;2023-06-04T07:29:52;28.80;99.90
31575;DHT22;18182;1.328;103.810;2023-06-04T07:32:18;28.90;99.90
31575;DHT22;18182;1.328;103.810;2023-06-04T07:34:44;28.90;99.90
31575;DHT22;18182;1.328;103.810;2023-06-04T07:37:10;28.90;99.90
31575;DHT22;18182;1.328;103.810;2023-06-04T07:39:38;28.90;99.90
31575;DHT22;18182;1.328;103.810;2023-06-04T07:42:05;28.90;99.90
31575;DHT22;18182;1.328;103.810;2023-06-04T07:44:33;28.80;99.90
31575;DHT22;18182;1.328;103.810;2023-06-04T07:47:00;28.90;99.90
31575;DHT22;18182;1.328;103.810;2023-06-04T07:49:26;28.80;99.90
31575;DHT22;18182;1.328;103.810;2023-06-04T07:51:52;28.80;99.90
31575;DHT22;18182;1.328;103.810;2023-06-04T07:54:19;28.70;99.90
31575;DHT22;18182;1.328;103.810;2023-06-04T07:56:45;28.80;99.90
31575;DHT22;18182;1.328;103.810;2023-06-04T07:59:11;28.70;99.90
31575;DHT22;18182;1.328;103.810;2023-06-04T08:01:37;28.60;99.90
31575;DHT22;18182;1.328;103.810;2023-06-04T08:04:03;28.70;99.90
31575;DHT22;18182;1.328;103.810;2023-06-04T08:06:29;28.60;99.90
31575;DHT22;18182;1.328;103.810;2023-06-04T08:08:55;28.60;99.90
31575;DHT22;18182;1.328;103.810;2023-06-04T08:11:22;28.60;99.90
31575;DHT22;18182;1.328;103.810;2023-06-04T08:13:50;28.70;99.90
31575;DHT22;18182;1.328;103.810;2023-06-04T08:16:17;28.70;99.90
31575;DHT22;18182;1.328;103.810;2023-06-04T08:18:43;28.70;99.90
31575;DHT22;18182;1.328;103.810;2023-06-04T08:21:09;28.80;99.90
31575;DHT22;18182;1.328;103.810;2023-06-04T08:23:36;28.80;99.90
31575;DHT22;18182;1.328;103.810;2023-06-04T08:26:02;28.80;99.90
31575;DHT22;18182;1.328;103.810;2023-06-04T08:28:28;28.80;99.90
31575;DHT22;18182;1.328;103.810;2023-06-04T08:30:55;28.70;99.90
31575;DHT22;18182;1.328;103.810;2023-06-04T08:33:21;28.70;99.90
31575;DHT22;18182;1.328;103.810;2023-06-04T08:35:47;28.70;99.90
31575;DHT22;18182;1.328;103.810;2023-06-04T08:38:13;28.80;99.90
31575;DHT22;18182;1.328;103.810;2023-06-04T08:40:40;28.80;99.90
31575;DHT22;18182;1.328;103.810;2023-06-04T08:43:06;28.80;99.90
31575;DHT22;18182;1.328;103.810;2023-06-04T08:45:33;28.90;99.90
31575;DHT22;18182;1.328;103.810;2023-06-04T08:48:04;28.90;99.90
31575;DHT22;18182;1.328;103.810;2023-06-04T08:50:36;28.90;99.90
31575;DHT22;18182;1.328;103.810;2023-06-04T08:53:05;28.90;99.90
31575;DHT22;18182;1.328;103.810;2023-06-04T08:55:31;29.00;99.90
31575;DHT22;18182;1.328;103.810;2023-06-04T08:57:57;29.00;99.90
31575;DHT22;18182;1.328;103.810;2023-06-04T09:00:23;29.00;99.90
31575;DHT22;18182;1.328;103.810;2023-06-04T09:02:49;29.10;99.90
31575;DHT22;18182;1.328;103.810;2023-06-04T09:05:20;29.00;99.90
31575;DHT22;18182;1.328;103.810;2023-06-04T09:07:46;29.10;99.90
31575;DHT22;18182;1.328;103.810;2023-06-04T09:10:13;29.10;99.90
31575;DHT22;18182;1.328;103.810;2023-06-04T09:12:42;29.10;99.90
31575;DHT22;18182;1.328;103.810;2023-06-04T09:15:09;29.10;99.90
31575;DHT22;18182;1.328;103.810;2023-06-04T09:17:36;29.10;99.90
31575;DHT22;18182;1.328;103.810;2023-06-04T09:20:02;29.10;99.90
31575;DHT22;18182;1.328;103.810;2023-06-04T09:22:35;29.10;99.90
31575;DHT22;18182;1.328;103.810;2023-06-04T09:25:03;29.10;99.90
31575;DHT22;18182;1.328;103.810;2023-06-04T09:27:36;29.20;99.90
31575;DHT22;18182;1.328;103.810;2023-06-04T09:30:03;29.20;99.90
31575;DHT22;18182;1.328;103.810;2023-06-04T09:32:30;29.20;99.90
31575;DHT22;18182;1.328;103.810;2023-06-04T09:35:08;29.20;99.90
31575;DHT22;18182;1.328;103.810;2023-06-04T09:37:38;29.20;99.90
31575;DHT22;18182;1.328;103.810;2023-06-04T09:40:05;29.20;99.90
31575;DHT22;18182;1.328;103.810;2023-06-04T09:42:50;29.20;99.90
31575;DHT22;18182;1.328;103.810;2023-06-04T09:45:27;29.20;99.90
31575;DHT22;18182;1.328;103.810;2023-06-04T09:47:54;29.20;99.90
31575;DHT22;18182;1.328;103.810;2023-06-04T09:50:41;29.20;99.90
31575;DHT22;18182;1.328;103.810;2023-06-04T09:53:17;29.20;99.90
31575;DHT22;18182;1.328;103.810;2023-06-04T09:55:44;29.20;99.90
31575;DHT22;18182;1.328;103.810;2023-06-04T09:58:10;29.10;99.90
31575;DHT22;18182;1.328;103.810;2023-06-04T10:00:37;29.10;99.90
31575;DHT22;18182;1.328;103.810;2023-06-04T10:03:04;29.00;99.90
31575;DHT22;18182;1.328;103.810;2023-06-04T10:05:34;29.00;99.90
31575;DHT22;18182;1.328;103.810;2023-06-04T10:08:04;28.90;99.90
31575;DHT22;18182;1.328;103.810;2023-06-04T10:10:31;28.90;99.90
31575;DHT22;18182;1.328;103.810;2023-06-04T10:13:07;28.90;99.90
31575;DHT22;18182;1.328;103.810;2023-06-04T10:15:36;28.90;99.90
31575;DHT22;18182;1.328;103.810;2023-06-04T10:18:03;28.90;99.90
31575;DHT22;18182;1.328;103.810;2023-06-04T10:20:29;28.90;99.90
31575;DHT22;18182;1.328;103.810;2023-06-04T10:22:56;28.80;99.90
31575;DHT22;18182;1.328;103.810;2023-06-04T10:25:22;28.80;99.90
31575;DHT22;18182;1.328;103.810;2023-06-04T10:27:48;28.90;99.90
31575;DHT22;18182;1.328;103.810;2023-06-04T10:30:16;28.80;99.90
31575;DHT22;18182;1.328;103.810;2023-06-04T10:32:42;28.80;99.90
31575;DHT22;18182;1.328;103.810;2023-06-04T10:35:08;28.80;99.90
31575;DHT22;18182;1.328;103.810;2023-06-04T10:37:35;28.70;99.90
31575;DHT22;18182;1.328;103.810;2023-06-04T10:40:01;28.70;99.90
31575;DHT22;18182;1.328;103.810;2023-06-04T10:42:37;28.70;99.90
31575;DHT22;18182;1.328;103.810;2023-06-04T10:45:03;28.60;99.90
31575;DHT22;18182;1.328;103.810;2023-06-04T10:47:29;28.50;99.90
31575;DHT22;18182;1.328;103.810;2023-06-04T10:50:06;28.50;99.90
31575;DHT22;18182;1.328;103.810;2023-06-04T10:52:32;28.50;99.90
31575;DHT22;18182;1.328;103.810;2023-06-04T10:55:05;28.50;99.90
31575;DHT22;18182;1.328;103.810;2023-06-04T10:57:32;28.60;99.90
31575;DHT22;18182;1.328;103.810;2023-06-04T10:59:59;28.50;99.90
31575;DHT22;18182;1.328;103.810;2023-06-04T11:02:25;28.60;99.90
31575;DHT22;18182;1.328;103.810;2023-06-04T11:05:05;28.60;99.90
31575;DHT22;18182;1.328;103.810;2023-06-04T11:07:45;28.60;99.90
31575;DHT22;18182;1.328;103.810;2023-06-04T11:10:12;28.50;99.90
31575;DHT22;18182;1.328;103.810;2023-06-04T11:12:45;28.60;99.90
31575;DHT22;18182;1.328;103.810;2023-06-04T11:15:12;28.60;99.90
31575;DHT22;18182;1.328;103.810;2023-06-04T11:17:48;28.70;99.90
31575;DHT22;18182;1.328;103.810;2023-06-04T11:20:17;28.70;99.90
31575;DHT22;18182;1.328;103.810;2023-06-04T11:22:54;28.70;99.90
31575;DHT22;18182;1.328;103.810;2023-06-04T11:25:22;28.70;99.90
31575;DHT22;18182;1.328;103.810;2023-06-04T11:27:52;28.70;99.90
31575;DHT22;18182;1.328;103.810;2023-06-04T11:30:19;28.70;99.90
31575;DHT22;18182;1.328;103.810;2023-06-04T11:32:45;28.70;99.90
31575;DHT22;18182;1.328;103.810;2023-06-04T11:35:13;28.70;99.90
31575;DHT22;18182;1.328;103.810;2023-06-04T11:37:39;28.70;99.90
31575;DHT22;18182;1.328;103.810;2023-06-04T11:40:18;28.70;99.90
31575;DHT22;18182;1.328;103.810;2023-06-04T11:42:47;28.70;99.90
31575;DHT22;18182;1.328;103.810;2023-06-04T11:45:15;28.70;99.90
31575;DHT22;18182;1.328;103.810;2023-06-04T11:47:44;28.70;99.90
31575;DHT22;18182;1.328;103.810;2023-06-04T11:50:11;28.70;99.90
31575;DHT22;18182;1.328;103.810;2023-06-04T11:52:37;28.70;99.90
31575;DHT22;18182;1.328;103.810;2023-06-04T11:55:04;28.70;99.90
31575;DHT22;18182;1.328;103.810;2023-06-04T11:57:31;28.70;99.90
31575;DHT22;18182;1.328;103.810;2023-06-04T11:59:57;28.70;99.90
31575;DHT22;18182;1.328;103.810;2023-06-04T12:02:23;28.70;99.90
31575;DHT22;18182;1.328;103.810;2023-06-04T12:04:50;28.70;99.90
31575;DHT22;18182;1.328;103.810;2023-06-04T12:07:19;28.60;99.90
31575;DHT22;18182;1.328;103.810;2023-06-04T12:09:46;28.70;99.90
31575;DHT22;18182;1.328;103.810;2023-06-04T12:12:12;28.70;99.90
31575;DHT22;18182;1.328;103.810;2023-06-04T12:14:39;28.70;99.90
31575;DHT22;18182;1.328;103.810;2023-06-04T12:17:06;28.70;99.90
31575;DHT22;18182;1.328;103.810;2023-06-04T12:19:33;28.70;99.90
31575;DHT22;18182;1.328;103.810;2023-06-04T12:22:06;28.70;99.90
31575;DHT22;18182;1.328;103.810;2023-06-04T12:24:32;28.70;99.90
31575;DHT22;18182;1.328;103.810;2023-06-04T12:27:02;28.70;99.90
31575;DHT22;18182;1.328;103.810;2023-06-04T12:29:28;28.60;99.90
31575;DHT22;18182;1.328;103.810;2023-06-04T12:32:15;28.60;99.90
31575;DHT22;18182;1.328;103.810;2023-06-04T12:34:41;28.70;99.90
31575;DHT22;18182;1.328;103.810;2023-06-04T12:37:07;28.60;99.90
31575;DHT22;18182;1.328;103.810;2023-06-04T12:39:34;28.60;99.90
31575;DHT22;18182;1.328;103.810;2023-06-04T12:42:05;28.70;99.90
31575;DHT22;18182;1.328;103.810;2023-06-04T12:44:32;28.70;99.90
31575;DHT22;18182;1.328;103.810;2023-06-04T12:46:58;28.70;99.90
31575;DHT22;18182;1.328;103.810;2023-06-04T12:49:24;28.60;99.90
31575;DHT22;18182;1.328;103.810;2023-06-04T12:51:50;28.60;99.90
31575;DHT22;18182;1.328;103.810;2023-06-04T12:54:17;28.60;99.90
31575;DHT22;18182;1.328;103.810;2023-06-04T12:56:43;28.60;99.90
31575;DHT22;18182;1.328;103.810;2023-06-04T12:59:10;28.60;99.90
31575;DHT22;18182;1.328;103.810;2023-06-04T13:01:36;28.70;99.90
31575;DHT22;18182;1.328;103.810;2023-06-04T13:04:03;28.70;99.90
31575;DHT22;18182;1.328;103.810;2023-06-04T13:06:29;28.60;99.90
31575;DHT22;18182;1.328;103.810;2023-06-04T13:08:56;28.60;99.90
31575;DHT22;18182;1.328;103.810;2023-06-04T13:11:22;28.60;99.90
31575;DHT22;18182;1.328;103.810;2023-06-04T13:13:48;28.60;99.90
31575;DHT22;18182;1.328;103.810;2023-06-04T13:16:14;28.60;99.90
31575;DHT22;18182;1.328;103.810;2023-06-04T13:18:41;28.60;99.90
31575;DHT22;18182;1.328;103.810;2023-06-04T13:21:07;28.50;99.90
31575;DHT22;18182;1.328;103.810;2023-06-04T13:23:33;28.50;99.90
31575;DHT22;18182;1.328;103.810;2023-06-04T13:25:59;28.50;99.90
31575;DHT22;18182;1.328;103.810;2023-06-04T13:28:26;28.50;99.90
31575;DHT22;18182;1.328;103.810;2023-06-04T13:30:52;28.50;99.90
31575;DHT22;18182;1.328;103.810;2023-06-04T13:33:19;28.50;99.90
31575;DHT22;18182;1.328;103.810;2023-06-04T13:35:47;28.60;99.90
31575;DHT22;18182;1.328;103.810;2023-06-04T13:38:13;28.60;99.90
31575;DHT22;18182;1.328;103.810;2023-06-04T13:40:39;28.60;99.90
31575;DHT22;18182;1.328;103.810;2023-06-04T13:43:05;28.70;99.90
31575;DHT22;18182;1.328;103.810;2023-06-04T13:45:34;28.60;99.90
31575;DHT22;18182;1.328;103.810;2023-06-04T13:48:00;28.60;99.90
31575;DHT22;18182;1.328;103.810;2023-06-04T13:50:31;28.70;99.90
31575;DHT22;18182;1.328;103.810;2023-06-04T13:52:57;28.80;99.90
31575;DHT22;18182;1.328;103.810;2023-06-04T13:55:23;28.80;99.90
31575;DHT22;18182;1.328;103.810;2023-06-04T13:57:49;28.80;99.90
31575;DHT22;18182;1.328;103.810;2023-06-04T14:00:15;28.90;99.90
31575;DHT22;18182;1.328;103.810;2023-06-04T14:02:42;28.90;99.90
31575;DHT22;18182;1.328;103.810;2023-06-04T14:05:08;28.90;99.90
31575;DHT22;18182;1.328;103.810;2023-06-04T14:07:34;28.90;99.90
31575;DHT22;18182;1.328;103.810;2023-06-04T14:10:00;28.90;99.90
31575;DHT22;18182;1.328;103.810;2023-06-04T14:12:26;28.90;99.90
31575;DHT22;18182;1.328;103.810;2023-06-04T14:14:52;28.90;99.90
31575;DHT22;18182;1.328;103.810;2023-06-04T14:17:19;28.90;99.90
31575;DHT22;18182;1.328;103.810;2023-06-04T14:19:45;28.90;99.90
31575;DHT22;18182;1.328;103.810;2023-06-04T14:22:11;28.80;99.90
31575;DHT22;18182;1.328;103.810;2023-06-04T14:24:39;28.80;99.90
31575;DHT22;18182;1.328;103.810;2023-06-04T14:27:06;28.80;99.90
31575;DHT22;18182;1.328;103.810;2023-06-04T14:29:32;28.80;99.90
31575;DHT22;18182;1.328;103.810;2023-06-04T14:31:58;28.80;99.90
31575;DHT22;18182;1.328;103.810;2023-06-04T14:34:24;28.80;99.90
31575;DHT22;18182;1.328;103.810;2023-06-04T14:36:50;28.70;99.90
31575;DHT22;18182;1.328;103.810;2023-06-04T14:39:17;28.70;99.90
31575;DHT22;18182;1.328;103.810;2023-06-04T14:41:43;28.70;99.90
31575;DHT22;18182;1.328;103.810;2023-06-04T14:44:09;28.60;99.90
31575;DHT22;18182;1.328;103.810;2023-06-04T14:46:35;28.50;99.90
31575;DHT22;18182;1.328;103.810;2023-06-04T14:49:01;28.50;99.90
31575;DHT22;18182;1.328;103.810;2023-06-04T14:51:28;28.50;99.90
31575;DHT22;18182;1.328;103.810;2023-06-04T14:53:54;28.50;99.90
31575;DHT22;18182;1.328;103.810;2023-06-04T14:56:20;28.50;99.90
31575;DHT22;18182;1.328;103.810;2023-06-04T14:58:48;28.40;99.90
31575;DHT22;18182;1.328;103.810;2023-06-04T15:01:14;28.40;99.90
31575;DHT22;18182;1.328;103.810;2023-06-04T15:03:41;28.40;99.90
31575;DHT22;18182;1.328;103.810;2023-06-04T15:06:07;28.40;99.90
31575;DHT22;18182;1.328;103.810;2023-06-04T15:08:33;28.30;99.90
31575;DHT22;18182;1.328;103.810;2023-06-04T15:11:00;28.40;99.90
31575;DHT22;18182;1.328;103.810;2023-06-04T15:13:26;28.40;99.90
31575;DHT22;18182;1.328;103.810;2023-06-04T15:15:52;28.50;99.90
31575;DHT22;18182;1.328;103.810;2023-06-04T15:18:18;28.50;99.90
31575;DHT22;18182;1.328;103.810;2023-06-04T15:20:44;28.50;99.90